createdAt,value
2018-09-12T00:00:57.120Z,87.03
2018-09-12T00:01:57.271Z,87.61
2018-09-12T00:02:57.423Z,88.66
2018-09-12T00:03:57.576Z,89.04
2018-09-12T00:04:57.730Z,88.47
2018-09-12T00:05:57.885Z,88.76
2018-09-12T00:06:58.036Z,88.47
2018-09-12T00:07:58.188Z,88.95
2018-09-12T00:08:58.340Z,89.29
2018-09-12T00:09:58.492Z,89.29
2018-09-12T00:10:58.644Z,89.00
2018-09-12T00:11:58.795Z,89.19
2018-09-12T00:12:58.947Z,89.95
2018-09-12T00:13:59.100Z,90.24
2018-09-12T00:14:59.254Z,90.05
2018-09-12T00:15:59.406Z,90.24
2018-09-12T00:16:59.561Z,90.24
2018-09-12T00:17:59.709Z,90.53
2018-09-12T00:18:59.863Z,90.82
2018-09-12T00:20:00.016Z,90.82
2018-09-12T00:21:00.186Z,90.91
2018-09-12T00:22:00.322Z,91.01
2018-09-12T00:23:00.480Z,90.91
2018-09-12T00:24:00.629Z,90.72
2018-09-12T00:25:00.781Z,90.82
2018-09-12T00:26:00.933Z,90.63
2018-09-12T00:27:01.087Z,91.30
2018-09-12T00:28:01.235Z,91.63
2018-09-12T00:29:01.399Z,91.53
2018-09-12T00:30:01.552Z,92.21
2018-09-12T00:31:01.719Z,92.21
2018-09-12T00:32:01.868Z,92.49
2018-09-12T00:33:02.023Z,92.59
2018-09-12T00:34:02.175Z,92.49
2018-09-12T00:35:02.326Z,91.44
2018-09-12T00:36:02.480Z,91.44
2018-09-12T00:37:02.687Z,91.53
2018-09-12T00:38:02.783Z,92.30
2018-09-12T00:39:02.935Z,92.02
2018-09-12T00:40:03.087Z,91.53
2018-09-12T00:41:03.239Z,91.73
2018-09-12T00:42:03.392Z,91.35
2018-09-12T00:43:03.543Z,90.82
2018-09-12T00:44:03.697Z,91.25
2018-09-12T00:45:03.849Z,91.44
2018-09-12T00:46:04.004Z,91.25
2018-09-12T00:47:04.158Z,91.53
2018-09-12T00:48:04.308Z,91.44
2018-09-12T00:49:04.461Z,91.25
2018-09-12T00:50:04.613Z,90.82
2018-09-12T00:51:04.767Z,91.06
2018-09-12T00:52:04.919Z,91.53
2018-09-12T00:53:05.072Z,91.25
2018-09-12T00:54:05.225Z,92.02
2018-09-12T00:55:05.377Z,92.21
2018-09-12T00:56:05.526Z,92.02
2018-09-12T00:57:05.682Z,91.73
2018-09-12T00:58:05.831Z,91.25
2018-09-12T00:59:05.984Z,91.30
2018-09-12T01:00:06.135Z,91.20
2018-09-12T01:01:06.285Z,90.87
2018-09-12T01:02:06.442Z,91.35
2018-09-12T01:03:06.590Z,91.35
2018-09-12T01:04:06.742Z,91.44
2018-09-12T01:05:06.896Z,91.53
2018-09-12T01:06:07.049Z,92.40
2018-09-12T01:07:07.197Z,92.30
2018-09-12T01:08:07.349Z,93.16
2018-09-12T01:09:07.498Z,93.55
2018-09-12T01:10:07.650Z,92.78
2018-09-12T01:11:07.800Z,93.26
2018-09-12T01:12:07.951Z,93.64
2018-09-12T01:13:08.105Z,94.55
2018-09-12T01:14:08.259Z,94.55
2018-09-12T01:15:08.409Z,94.36
2018-09-12T01:16:08.563Z,94.46
2018-09-12T01:17:08.718Z,94.17
2018-09-12T01:18:08.871Z,94.74
2018-09-12T01:19:09.024Z,94.26
2018-09-12T01:20:09.175Z,94.55
2018-09-12T01:21:09.327Z,95.32
2018-09-12T01:22:09.480Z,95.22
2018-09-12T01:23:09.631Z,95.22
2018-09-12T01:24:09.782Z,95.70
2018-09-12T01:25:09.933Z,96.18
2018-09-12T01:26:10.086Z,95.61
2018-09-12T01:27:10.236Z,95.61
2018-09-12T01:28:10.391Z,95.32
2018-09-12T01:29:10.548Z,95.61
2018-09-12T01:30:10.699Z,95.22
2018-09-12T01:31:10.851Z,95.41
2018-09-12T01:32:10.999Z,95.51
2018-09-12T01:33:11.151Z,96.18
2018-09-12T01:34:11.304Z,96.18
2018-09-12T01:35:11.460Z,95.70
2018-09-12T01:36:11.610Z,95.41
2018-09-12T01:37:11.762Z,95.32
2018-09-12T01:38:11.913Z,94.74
2018-09-12T01:39:12.065Z,94.46
2018-09-12T01:40:12.218Z,94.79
2018-09-12T01:41:12.367Z,93.88
2018-09-12T01:42:12.521Z,94.26
2018-09-12T01:43:12.673Z,95.32
2018-09-12T01:44:12.824Z,95.79
2018-09-12T01:45:12.977Z,96.37
2018-09-12T01:46:13.126Z,96.84
2018-09-12T01:47:13.279Z,95.79
2018-09-12T01:48:13.431Z,96.18
2018-09-12T01:49:13.581Z,96.27
2018-09-12T01:50:13.735Z,96.08
2018-09-12T01:51:13.885Z,95.32
2018-09-12T01:52:14.037Z,94.93
2018-09-12T01:53:14.188Z,95.41
2018-09-12T01:54:14.337Z,95.61
2018-09-12T01:55:14.489Z,94.93
2018-09-12T01:56:14.641Z,95.61
2018-09-12T01:57:14.793Z,95.03
2018-09-12T01:58:14.946Z,95.61
2018-09-12T01:59:15.098Z,95.61
2018-09-12T02:00:15.249Z,95.98
2018-09-12T02:01:15.401Z,95.98
2018-09-12T02:02:15.553Z,96.66
2018-09-12T02:03:15.708Z,96.37
2018-09-12T02:04:15.861Z,96.47
2018-09-12T02:05:16.011Z,96.75
2018-09-12T02:06:16.159Z,97.61
2018-09-12T02:07:16.313Z,97.90
2018-09-12T02:08:16.463Z,97.47
2018-09-12T02:09:16.613Z,97.56
2018-09-12T02:10:16.763Z,97.42
2018-09-12T02:11:16.915Z,97.56
2018-09-12T02:12:17.064Z,97.85
2018-09-12T02:13:17.214Z,97.37
2018-09-12T02:14:17.369Z,97.37
2018-09-12T02:15:17.517Z,97.37
2018-09-12T02:16:17.671Z,97.66
2018-09-12T02:17:17.821Z,97.56
2018-09-12T02:18:17.974Z,97.75
2018-09-12T02:19:18.126Z,98.23
2018-09-12T02:20:18.279Z,98.61
2018-09-12T02:21:18.430Z,98.90
2018-09-12T02:22:18.578Z,99.09
2018-09-12T02:23:18.730Z,98.52
2018-09-12T02:24:18.880Z,98.42
2018-09-12T02:25:19.029Z,98.71
2018-09-12T02:26:19.182Z,98.71
2018-09-12T02:27:19.334Z,97.85
2018-09-12T02:28:19.488Z,98.71
2018-09-12T02:29:19.639Z,99.19
2018-09-12T02:30:19.793Z,98.61
2018-09-12T02:31:19.945Z,98.42
2018-09-12T02:32:20.098Z,98.61
2018-09-12T02:33:20.249Z,99.23
2018-09-12T02:34:20.401Z,98.99
2018-09-12T02:35:20.552Z,98.94
2018-09-12T02:36:20.705Z,98.94
2018-09-12T02:37:21.507Z,99.19
2018-09-12T02:38:21.019Z,99.57
2018-09-12T02:39:21.171Z,98.90
2018-09-12T02:40:21.323Z,99.19
2018-09-12T02:41:21.477Z,99.14
2018-09-12T02:42:21.625Z,98.75
2018-09-12T02:43:21.815Z,99.62
2018-09-12T02:44:21.968Z,99.62
2018-09-12T02:45:22.117Z,99.62
2018-09-12T02:46:22.269Z,99.99
2018-09-12T02:47:22.423Z,99.99
2018-09-12T02:48:22.575Z,99.57
2018-09-12T02:49:22.726Z,99.43
2018-09-12T02:50:22.877Z,99.04
2018-09-12T02:51:23.027Z,98.90
2018-09-12T02:52:23.179Z,99.14
2018-09-12T02:53:23.333Z,99.80
2018-09-12T02:54:23.486Z,99.43
2018-09-12T02:55:23.635Z,99.99
2018-09-12T02:56:23.784Z,99.52
2018-09-12T02:57:23.936Z,99.33
2018-09-12T02:58:24.090Z,99.52
2018-09-12T02:59:24.239Z,99.14
2018-09-12T03:00:24.432Z,99.80
2018-09-12T03:01:24.539Z,99.52
2018-09-12T03:02:24.690Z,99.99
2018-09-12T03:03:24.898Z,99.99
2018-09-12T03:04:24.990Z,99.99
2018-09-12T03:05:25.139Z,99.99
2018-09-12T03:06:25.290Z,99.99
2018-09-12T03:07:25.443Z,99.99
2018-09-12T03:08:25.596Z,99.99
2018-09-12T03:09:25.745Z,99.99
2018-09-12T03:10:25.896Z,99.99
2018-09-12T03:11:26.045Z,99.99
2018-09-12T03:12:26.194Z,99.99
2018-09-12T03:13:26.343Z,99.99
2018-09-12T03:14:26.496Z,99.99
2018-09-12T03:15:26.647Z,99.99
2018-09-12T03:16:26.800Z,99.99
2018-09-12T03:17:26.951Z,99.99
2018-09-12T03:18:27.102Z,99.99
2018-09-12T03:19:27.253Z,99.99
2018-09-12T03:20:27.442Z,99.99
2018-09-12T03:21:27.567Z,99.99
2018-09-12T03:22:27.712Z,99.99
2018-09-12T03:23:27.863Z,99.99
2018-09-12T03:24:28.016Z,99.99
2018-09-12T03:25:28.170Z,99.99
2018-09-12T03:26:28.321Z,99.99
2018-09-12T03:27:28.471Z,99.99
2018-09-12T03:28:28.621Z,99.99
2018-09-12T03:29:28.775Z,99.99
2018-09-12T03:30:28.928Z,99.99
2018-09-12T03:31:29.079Z,99.99
2018-09-12T03:32:29.228Z,99.99
2018-09-12T03:33:29.381Z,99.99
2018-09-12T03:34:29.532Z,99.99
2018-09-12T03:35:29.684Z,99.99
2018-09-12T03:36:29.844Z,99.99
2018-09-12T03:37:29.988Z,99.99
2018-09-12T03:38:30.145Z,99.99
2018-09-12T03:39:30.294Z,99.99
2018-09-12T03:40:30.446Z,99.99
2018-09-12T03:41:30.599Z,99.99
2018-09-12T03:42:30.751Z,99.99
2018-09-12T03:43:30.902Z,99.99
2018-09-12T03:44:31.054Z,99.99
2018-09-12T03:45:31.207Z,99.99
2018-09-12T03:46:31.358Z,99.99
2018-09-12T03:47:31.512Z,99.99
2018-09-12T03:48:31.662Z,99.99
2018-09-12T03:49:31.813Z,99.99
2018-09-12T03:50:31.968Z,99.99
2018-09-12T03:51:32.118Z,99.99
2018-09-12T03:52:32.266Z,99.99
2018-09-12T03:53:32.417Z,99.99
2018-09-12T03:54:32.570Z,99.99
2018-09-12T03:55:32.721Z,99.99
2018-09-12T03:56:32.873Z,99.99
2018-09-12T03:57:33.023Z,99.99
2018-09-12T03:58:33.177Z,99.99
2018-09-12T03:59:33.329Z,99.99
2018-09-12T04:00:33.481Z,99.99
2018-09-12T04:01:33.632Z,99.99
2018-09-12T04:02:33.819Z,99.99
2018-09-12T04:03:33.935Z,99.99
2018-09-12T04:04:34.085Z,99.99
2018-09-12T04:05:34.238Z,99.99
2018-09-12T04:06:34.390Z,99.99
2018-09-12T04:07:34.544Z,99.99
2018-09-12T04:08:34.695Z,99.99
2018-09-12T04:09:34.844Z,99.99
2018-09-12T04:10:34.997Z,99.99
2018-09-12T04:11:35.149Z,99.99
2018-09-12T04:12:35.301Z,99.99
2018-09-12T04:13:35.452Z,99.99
2018-09-12T04:14:35.606Z,99.99
2018-09-12T04:15:35.755Z,99.99
2018-09-12T04:16:35.905Z,99.99
2018-09-12T04:17:36.059Z,99.99
2018-09-12T04:18:36.213Z,99.99
2018-09-12T04:19:36.365Z,99.99
2018-09-12T04:20:36.519Z,99.99
2018-09-12T04:21:36.670Z,99.99
2018-09-12T04:22:36.822Z,99.99
2018-09-12T04:23:36.975Z,99.99
2018-09-12T04:24:37.127Z,99.99
2018-09-12T04:25:37.280Z,99.99
2018-09-12T04:26:37.477Z,99.99
2018-09-12T04:27:37.583Z,99.99
2018-09-12T04:28:37.740Z,99.99
2018-09-12T04:29:37.889Z,99.99
2018-09-12T04:30:38.050Z,99.99
2018-09-12T04:31:38.200Z,99.99
2018-09-12T04:32:38.348Z,99.99
2018-09-12T04:33:38.500Z,99.99
2018-09-12T04:34:38.651Z,99.99
2018-09-12T04:35:38.800Z,99.99
2018-09-12T04:36:38.956Z,99.99
2018-09-12T04:37:39.107Z,99.99
2018-09-12T04:38:39.259Z,99.99
2018-09-12T04:39:39.412Z,99.99
2018-09-12T04:40:39.580Z,99.99
2018-09-12T04:41:39.714Z,99.99
2018-09-12T04:42:39.884Z,99.99
2018-09-12T04:43:40.019Z,99.99
2018-09-12T04:44:40.170Z,99.99
2018-09-12T04:45:40.323Z,99.99
2018-09-12T04:46:40.472Z,99.99
2018-09-12T04:47:40.618Z,99.99
2018-09-12T04:48:40.772Z,99.99
2018-09-12T04:49:40.928Z,99.99
2018-09-12T04:50:41.069Z,99.99
2018-09-12T04:51:41.218Z,99.99
2018-09-12T04:52:41.367Z,99.99
2018-09-12T04:53:41.520Z,99.99
2018-09-12T04:54:41.673Z,99.99
2018-09-12T04:55:41.822Z,99.99
2018-09-12T04:56:41.982Z,99.99
2018-09-12T04:57:42.128Z,99.99
2018-09-12T04:58:42.277Z,99.99
2018-09-12T04:59:42.503Z,99.99
2018-09-12T05:00:42.576Z,99.99
2018-09-12T05:01:42.727Z,99.99
2018-09-12T05:02:42.877Z,99.99
2018-09-12T05:03:43.029Z,99.99
2018-09-12T05:04:43.182Z,99.99
2018-09-12T05:05:43.331Z,99.99
2018-09-12T05:06:43.484Z,99.99
2018-09-12T05:07:43.635Z,99.99
2018-09-12T05:08:43.787Z,99.99
2018-09-12T05:09:43.940Z,99.99
2018-09-12T05:10:44.091Z,99.99
2018-09-12T05:11:44.240Z,99.99
2018-09-12T05:12:44.394Z,99.99
2018-09-12T05:13:44.545Z,99.99
2018-09-12T05:14:44.702Z,99.99
2018-09-12T05:15:44.847Z,99.99
2018-09-12T05:16:45.042Z,99.99
2018-09-12T05:17:45.150Z,99.99
2018-09-12T05:18:45.301Z,99.99
2018-09-12T05:19:45.451Z,99.99
2018-09-12T05:20:45.604Z,99.99
2018-09-12T05:21:45.745Z,99.99
2018-09-12T05:22:45.893Z,99.99
2018-09-12T05:23:46.043Z,99.99
2018-09-12T05:24:46.196Z,99.99
2018-09-12T05:25:46.346Z,99.99
2018-09-12T05:26:46.498Z,99.99
2018-09-12T05:27:46.651Z,99.99
2018-09-12T05:28:46.800Z,99.99
2018-09-12T05:29:46.952Z,99.99
2018-09-12T05:30:47.102Z,99.99
2018-09-12T05:31:47.255Z,99.99
2018-09-12T05:32:47.409Z,99.99
2018-09-12T05:33:47.558Z,99.99
2018-09-12T05:34:47.709Z,99.99
2018-09-12T05:35:47.867Z,99.99
2018-09-12T05:36:48.013Z,99.99
2018-09-12T05:37:48.162Z,99.99
2018-09-12T05:38:48.320Z,99.99
2018-09-12T05:39:48.468Z,99.99
2018-09-12T05:40:48.618Z,99.99
2018-09-12T05:41:48.769Z,99.99
2018-09-12T05:42:48.921Z,99.99
2018-09-12T05:43:49.072Z,99.99
2018-09-12T05:44:49.225Z,99.99
2018-09-12T05:45:49.375Z,99.99
2018-09-12T05:46:49.528Z,99.99
2018-09-12T05:47:49.680Z,99.99
2018-09-12T05:48:49.834Z,99.99
2018-09-12T05:49:49.984Z,99.90
2018-09-12T05:50:50.133Z,99.99
2018-09-12T05:51:50.286Z,99.99
2018-09-12T05:52:50.439Z,99.71
2018-09-12T05:53:50.590Z,99.99
2018-09-12T05:54:50.739Z,99.71
2018-09-12T05:55:50.888Z,99.52
2018-09-12T05:56:51.045Z,99.04
2018-09-12T05:57:51.201Z,99.28
2018-09-12T05:58:51.349Z,98.99
2018-09-12T05:59:51.501Z,98.80
2018-09-12T06:00:51.659Z,98.61
2018-09-12T06:01:51.805Z,97.75
2018-09-12T06:02:51.954Z,98.23
2018-09-12T06:03:52.106Z,98.23
2018-09-12T06:04:52.261Z,97.66
2018-09-12T06:05:52.408Z,97.47
2018-09-12T06:06:52.644Z,97.56
2018-09-12T06:07:52.712Z,96.84
2018-09-12T06:08:52.865Z,96.75
2018-09-12T06:09:53.020Z,96.37
2018-09-12T06:10:53.169Z,96.75
2018-09-12T06:11:53.322Z,96.75
2018-09-12T06:12:53.474Z,96.37
2018-09-12T06:13:53.653Z,96.47
2018-09-12T06:14:53.777Z,96.47
2018-09-12T06:15:53.930Z,96.08
2018-09-12T06:16:54.085Z,96.37
2018-09-12T06:17:54.235Z,96.47
2018-09-12T06:18:54.391Z,96.47
2018-09-12T06:19:54.540Z,96.56
2018-09-12T06:20:54.692Z,96.08
2018-09-12T06:21:54.844Z,95.98
2018-09-12T06:22:54.997Z,96.18
2018-09-12T06:23:55.150Z,96.08
2018-09-12T06:24:55.302Z,95.98
2018-09-12T06:25:55.454Z,95.61
2018-09-12T06:26:55.608Z,96.08
2018-09-12T06:27:55.759Z,95.22
2018-09-12T06:28:55.909Z,94.79
2018-09-12T06:29:56.063Z,94.70
2018-09-12T06:30:56.217Z,94.98
2018-09-12T06:31:56.371Z,94.98
2018-09-12T06:32:56.522Z,94.98
2018-09-12T06:33:56.675Z,95.07
2018-09-12T06:34:56.829Z,94.70
2018-09-12T06:35:56.980Z,94.12
2018-09-12T06:36:57.132Z,94.41
2018-09-12T06:37:57.283Z,94.12
2018-09-12T06:38:57.441Z,93.74
2018-09-12T06:39:57.594Z,93.26
2018-09-12T06:40:57.743Z,93.45
2018-09-12T06:41:57.897Z,93.16
2018-09-12T06:42:58.050Z,93.30
2018-09-12T06:43:58.201Z,93.59
2018-09-12T06:44:58.355Z,93.79
2018-09-12T06:45:58.507Z,93.21
2018-09-12T06:46:58.663Z,93.21
2018-09-12T06:47:58.817Z,93.69
2018-09-12T06:48:58.971Z,92.44
2018-09-12T06:49:59.119Z,92.16
2018-09-12T06:50:59.270Z,91.49
2018-09-12T06:51:59.421Z,90.96
2018-09-12T06:52:59.579Z,91.25
2018-09-12T06:53:59.736Z,91.34
2018-09-12T06:54:59.884Z,91.15
2018-09-12T06:56:00.078Z,90.86
2018-09-12T06:57:00.189Z,91.34
2018-09-12T06:58:00.344Z,91.53
2018-09-12T06:59:00.493Z,91.05
2018-09-12T07:00:00.648Z,91.10
2018-09-12T07:01:00.836Z,91.10
2018-09-12T07:02:00.950Z,90.14
2018-09-12T07:03:01.104Z,90.33
2018-09-12T07:04:01.257Z,90.43
2018-09-12T07:05:01.409Z,89.95
2018-09-12T07:06:01.564Z,89.37
2018-09-12T07:07:01.716Z,88.99
2018-09-12T07:08:01.871Z,89.18
2018-09-12T07:09:02.023Z,89.18
2018-09-12T07:10:02.176Z,88.51
2018-09-12T07:11:02.328Z,88.17
2018-09-12T07:12:02.485Z,87.50
2018-09-12T07:13:02.639Z,87.31
2018-09-12T07:14:02.836Z,87.70
2018-09-12T07:15:02.949Z,86.58
2018-09-12T07:16:03.102Z,85.92
2018-09-12T07:17:03.249Z,87.26
2018-09-12T07:18:03.404Z,86.21
2018-09-12T07:19:03.554Z,84.95
2018-09-12T07:20:03.710Z,84.23
2018-09-12T07:21:03.866Z,84.61
2018-09-12T07:22:04.018Z,83.56
2018-09-12T07:23:04.174Z,83.75
2018-09-12T07:24:04.332Z,82.64
2018-09-12T07:25:04.482Z,81.78
2018-09-12T07:26:04.633Z,81.40
2018-09-12T07:27:04.788Z,80.73
2018-09-12T07:28:04.943Z,80.91
2018-09-12T07:29:05.098Z,80.28
2018-09-12T07:30:05.251Z,79.22
2018-09-12T07:31:05.408Z,78.65
2018-09-12T07:32:05.560Z,77.78
2018-09-12T07:33:05.715Z,77.31
2018-09-12T07:34:05.866Z,77.59
2018-09-12T07:35:06.021Z,76.39
2018-09-12T07:36:06.173Z,76.09
2018-09-12T07:37:06.327Z,76.19
2018-09-12T07:38:06.481Z,75.81
2018-09-12T07:39:06.635Z,75.52
2018-09-12T07:40:06.794Z,75.32
2018-09-12T07:41:06.945Z,75.07
2018-09-12T07:42:07.101Z,74.21
2018-09-12T07:43:07.258Z,74.30
2018-09-12T07:44:07.412Z,73.44
2018-09-12T07:45:07.568Z,73.54
2018-09-12T07:46:07.726Z,73.44
2018-09-12T07:47:07.880Z,73.25
2018-09-12T07:48:08.031Z,72.52
2018-09-12T07:49:08.272Z,72.42
2018-09-12T07:50:08.339Z,72.61
2018-09-12T07:51:08.495Z,71.75
2018-09-12T07:52:08.649Z,72.61
2018-09-12T07:53:08.803Z,71.46
2018-09-12T07:54:08.958Z,71.88
2018-09-12T07:55:09.163Z,71.46
2018-09-12T07:56:09.332Z,71.78
2018-09-12T07:57:09.423Z,71.20
2018-09-12T07:58:09.586Z,71.20
2018-09-12T07:59:09.740Z,70.43
2018-09-12T08:00:09.967Z,70.47
2018-09-12T08:01:10.043Z,69.89
2018-09-12T08:02:10.201Z,70.56
2018-09-12T08:03:10.354Z,70.09
2018-09-12T08:04:10.508Z,69.99
2018-09-12T08:05:10.733Z,70.66
2018-09-12T08:06:10.821Z,71.14
2018-09-12T08:07:10.975Z,71.43
2018-09-12T08:08:11.128Z,70.95
2018-09-12T08:09:11.280Z,70.86
2018-09-12T08:10:11.436Z,70.37
2018-09-12T08:11:11.591Z,70.89
2018-09-12T08:12:11.814Z,70.21
2018-09-12T08:13:11.902Z,70.12
2018-09-12T08:14:12.062Z,70.41
2018-09-12T08:15:12.219Z,68.96
2018-09-12T08:16:12.376Z,68.96
2018-09-12T08:17:12.531Z,68.96
2018-09-12T08:18:12.685Z,68.58
2018-09-12T08:19:12.844Z,68.48
2018-09-12T08:20:12.998Z,69.38
2018-09-12T08:21:13.154Z,68.04
2018-09-12T08:22:13.309Z,68.23
2018-09-12T08:23:13.462Z,67.74
2018-09-12T08:24:13.620Z,67.78
2018-09-12T08:25:13.777Z,68.16
2018-09-12T08:26:13.997Z,69.23
2018-09-12T08:27:14.089Z,68.26
2018-09-12T08:28:14.246Z,68.16
2018-09-12T08:29:14.403Z,67.49
2018-09-12T08:30:14.560Z,67.68
2018-09-12T08:31:14.715Z,67.30
2018-09-12T08:32:14.870Z,67.00
2018-09-12T08:33:15.065Z,67.23
2018-09-12T08:34:15.183Z,66.46
2018-09-12T08:35:15.339Z,65.59
2018-09-12T08:36:15.505Z,65.78
2018-09-12T08:37:15.658Z,65.69
2018-09-12T08:38:15.812Z,65.59
2018-09-12T08:39:15.970Z,65.43
2018-09-12T08:40:16.127Z,65.43
2018-09-12T08:41:16.287Z,65.34
2018-09-12T08:42:16.508Z,64.76
2018-09-12T08:43:16.597Z,64.37
2018-09-12T08:44:16.756Z,63.50
2018-09-12T08:45:16.916Z,64.76
2018-09-12T08:46:17.068Z,64.37
2018-09-12T08:47:17.231Z,64.28
2018-09-12T08:48:17.386Z,63.63
2018-09-12T08:49:17.541Z,63.73
2018-09-12T08:50:17.698Z,63.53
2018-09-12T08:51:17.857Z,61.80
2018-09-12T08:52:18.012Z,62.57
2018-09-12T08:53:18.170Z,61.89
2018-09-12T08:54:18.327Z,62.21
2018-09-12T08:55:18.483Z,62.21
2018-09-12T08:56:18.641Z,61.27
2018-09-12T08:57:18.798Z,61.92
2018-09-12T08:58:18.957Z,61.08
2018-09-12T08:59:19.117Z,61.27
2018-09-12T09:00:19.320Z,60.99
2018-09-12T09:01:19.509Z,59.34
2018-09-12T09:02:19.587Z,59.08
2018-09-12T09:03:19.747Z,59.28
2018-09-12T09:04:19.905Z,59.86
2018-09-12T09:05:20.062Z,58.98
2018-09-12T09:06:20.220Z,57.63
2018-09-12T09:07:20.378Z,58.72
2018-09-12T09:08:20.535Z,58.70
2018-09-12T09:09:20.691Z,57.86
2018-09-12T09:10:20.883Z,58.34
2018-09-12T09:11:21.007Z,58.34
2018-09-12T09:12:21.183Z,57.95
2018-09-12T09:13:21.339Z,57.08
2018-09-12T09:14:21.499Z,56.21
2018-09-12T09:15:21.658Z,56.72
2018-09-12T09:16:21.817Z,56.72
2018-09-12T09:17:22.033Z,55.66
2018-09-12T09:18:22.136Z,54.81
2018-09-12T09:19:22.289Z,54.98
2018-09-12T09:20:22.444Z,54.69
2018-09-12T09:21:22.601Z,53.94
2018-09-12T09:22:22.761Z,53.65
2018-09-12T09:23:22.919Z,53.65
2018-09-12T09:24:23.077Z,52.49
2018-09-12T09:25:23.236Z,52.78
2018-09-12T09:26:23.395Z,52.49
2018-09-12T09:27:23.554Z,52.03
2018-09-12T09:28:23.712Z,52.03
2018-09-12T09:29:23.943Z,51.64
2018-09-12T09:30:24.031Z,52.03
2018-09-12T09:31:24.189Z,51.93
2018-09-12T09:32:24.346Z,52.03
2018-09-12T09:33:24.506Z,51.57
2018-09-12T09:34:24.664Z,51.47
2018-09-12T09:35:24.898Z,50.50
2018-09-12T09:36:24.980Z,50.89
2018-09-12T09:37:25.138Z,51.57
2018-09-12T09:38:25.297Z,50.79
2018-09-12T09:39:25.457Z,50.79
2018-09-12T09:40:25.616Z,50.60
2018-09-12T09:41:25.773Z,50.99
2018-09-12T09:42:25.934Z,51.09
2018-09-12T09:43:26.095Z,50.79
2018-09-12T09:44:26.253Z,50.72
2018-09-12T09:45:26.456Z,50.62
2018-09-12T09:46:26.572Z,50.14
2018-09-12T09:47:26.731Z,50.43
2018-09-12T09:48:26.955Z,50.14
2018-09-12T09:49:27.049Z,49.27
2018-09-12T09:50:27.208Z,49.85
2018-09-12T09:51:27.370Z,49.29
2018-09-12T09:52:27.528Z,49.19
2018-09-12T09:53:27.687Z,49.49
2018-09-12T09:54:27.849Z,48.71
2018-09-12T09:55:28.007Z,48.52
2018-09-12T09:56:28.165Z,49.29
2018-09-12T09:57:28.326Z,49.22
2018-09-12T09:58:28.485Z,49.51
2018-09-12T09:59:28.644Z,48.64
2018-09-12T10:00:28.886Z,48.27
2018-09-12T10:01:28.962Z,47.18
2018-09-12T10:02:29.125Z,47.69
2018-09-12T10:03:29.287Z,47.69
2018-09-12T10:04:29.440Z,47.40
2018-09-12T10:05:29.601Z,46.04
2018-09-12T10:06:29.760Z,45.75
2018-09-12T10:07:29.917Z,46.14
2018-09-12T10:08:30.123Z,46.04
2018-09-12T10:09:30.239Z,45.84
2018-09-12T10:10:30.399Z,45.87
2018-09-12T10:11:30.560Z,45.18
2018-09-12T10:12:30.720Z,45.67
2018-09-12T10:13:30.876Z,45.57
2018-09-12T10:14:31.040Z,45.09
2018-09-12T10:15:31.201Z,45.50
2018-09-12T10:16:31.363Z,44.92
2018-09-12T10:17:31.526Z,47.05
2018-09-12T10:18:31.689Z,45.40
2018-09-12T10:19:31.848Z,45.31
2018-09-12T10:20:32.009Z,45.31
2018-09-12T10:21:32.175Z,44.53
2018-09-12T10:22:32.334Z,44.62
2018-09-12T10:23:32.491Z,44.53
2018-09-12T10:24:32.654Z,44.33
2018-09-12T10:25:32.813Z,44.35
2018-09-12T10:26:32.974Z,44.14
2018-09-12T10:27:33.136Z,44.74
2018-09-12T10:28:33.297Z,44.24
2018-09-12T10:29:33.459Z,45.04
2018-09-12T10:30:33.618Z,44.45
2018-09-12T10:31:33.780Z,43.96
2018-09-12T10:32:33.938Z,43.77
2018-09-12T10:33:34.102Z,43.96
2018-09-12T10:34:34.263Z,44.18
2018-09-12T10:35:34.425Z,43.50
2018-09-12T10:36:34.581Z,43.40
2018-09-12T10:37:34.746Z,45.25
2018-09-12T10:38:34.905Z,45.06
2018-09-12T10:39:35.065Z,43.48
2018-09-12T10:40:35.224Z,44.45
2018-09-12T10:41:35.388Z,44.55
2018-09-12T10:42:35.551Z,44.67
2018-09-12T10:43:35.709Z,44.84
2018-09-12T10:44:35.872Z,44.74
2018-09-12T10:45:36.034Z,43.70
2018-09-12T10:46:36.193Z,43.21
2018-09-12T10:47:36.355Z,43.99
2018-09-12T10:48:36.516Z,43.23
2018-09-12T10:49:36.679Z,43.60
2018-09-12T10:50:36.842Z,43.21
2018-09-12T10:51:37.001Z,42.91
2018-09-12T10:52:37.161Z,43.21
2018-09-12T10:53:37.320Z,43.21
2018-09-12T10:54:37.486Z,43.30
2018-09-12T10:55:37.657Z,44.28
2018-09-12T10:56:37.801Z,43.13
2018-09-12T10:57:37.965Z,42.45
2018-09-12T10:58:38.128Z,42.63
2018-09-12T10:59:38.289Z,42.33
2018-09-12T11:00:38.449Z,43.11
2018-09-12T11:01:38.611Z,43.21
2018-09-12T11:02:38.774Z,43.60
2018-09-12T11:03:38.936Z,43.11
2018-09-12T11:04:39.097Z,43.11
2018-09-12T11:05:39.258Z,43.40
2018-09-12T11:06:39.422Z,43.01
2018-09-12T11:07:39.581Z,42.53
2018-09-12T11:08:39.745Z,43.40
2018-09-12T11:09:39.915Z,43.52
2018-09-12T11:10:40.064Z,43.52
2018-09-12T11:11:40.224Z,42.74
2018-09-12T11:12:40.390Z,42.16
2018-09-12T11:13:40.544Z,42.76
2018-09-12T11:14:40.708Z,42.76
2018-09-12T11:15:40.869Z,42.25
2018-09-12T11:16:41.031Z,42.16
2018-09-12T11:17:41.192Z,42.76
2018-09-12T11:18:41.351Z,42.18
2018-09-12T11:19:41.517Z,42.18
2018-09-12T11:20:41.676Z,42.25
2018-09-12T11:21:41.836Z,42.35
2018-09-12T11:22:41.999Z,41.79
2018-09-12T11:23:42.165Z,42.45
2018-09-12T11:24:42.327Z,42.35
2018-09-12T11:25:42.487Z,42.86
2018-09-12T11:26:42.648Z,43.05
2018-09-12T11:27:42.818Z,42.57
2018-09-12T11:28:42.979Z,41.60
2018-09-12T11:29:43.139Z,41.48
2018-09-12T11:30:43.301Z,41.96
2018-09-12T11:31:43.467Z,42.16
2018-09-12T11:32:43.629Z,42.25
2018-09-12T11:33:43.792Z,41.96
2018-09-12T11:34:43.952Z,42.16
2018-09-12T11:35:44.113Z,41.86
2018-09-12T11:36:44.276Z,42.25
2018-09-12T11:37:44.437Z,42.04
2018-09-12T11:38:44.597Z,42.24
2018-09-12T11:39:44.762Z,41.86
2018-09-12T11:40:44.929Z,41.86
2018-09-12T11:41:45.088Z,41.96
2018-09-12T11:42:45.248Z,41.77
2018-09-12T11:43:45.410Z,41.57
2018-09-12T11:44:45.576Z,41.86
2018-09-12T11:45:45.732Z,42.57
2018-09-12T11:46:45.892Z,41.79
2018-09-12T11:47:46.055Z,41.40
2018-09-12T11:48:46.215Z,41.96
2018-09-12T11:49:46.381Z,41.99
2018-09-12T11:50:46.542Z,42.18
2018-09-12T11:51:46.718Z,42.69
2018-09-12T11:52:46.876Z,41.91
2018-09-12T11:53:47.040Z,41.25
2018-09-12T11:54:47.202Z,40.86
2018-09-12T11:55:47.357Z,41.32
2018-09-12T11:56:47.521Z,40.45
2018-09-12T11:57:47.680Z,41.42
2018-09-12T11:58:47.839Z,41.60
2018-09-12T11:59:48.002Z,41.81
2018-09-12T12:00:48.162Z,41.71
2018-09-12T12:01:48.322Z,41.13
2018-09-12T12:02:48.485Z,40.55
2018-09-12T12:03:48.646Z,40.64
2018-09-12T12:04:48.808Z,41.03
2018-09-12T12:05:48.969Z,41.22
2018-09-12T12:06:49.130Z,40.93
2018-09-12T12:07:49.292Z,41.15
2018-09-12T12:08:49.454Z,40.45
2018-09-12T12:09:49.624Z,41.40
2018-09-12T12:10:49.804Z,41.20
2018-09-12T12:11:49.951Z,41.50
2018-09-12T12:12:50.121Z,41.22
2018-09-12T12:13:50.282Z,41.42
2018-09-12T12:14:50.440Z,41.71
2018-09-12T12:15:50.602Z,41.13
2018-09-12T12:16:50.760Z,41.22
2018-09-12T12:17:50.921Z,40.81
2018-09-12T12:18:51.080Z,41.13
2018-09-12T12:19:51.242Z,41.13
2018-09-12T12:20:51.406Z,41.11
2018-09-12T12:21:51.572Z,41.42
2018-09-12T12:22:51.731Z,41.20
2018-09-12T12:23:51.891Z,41.28
2018-09-12T12:24:52.055Z,41.40
2018-09-12T12:25:52.213Z,41.30
2018-09-12T12:26:52.375Z,41.42
2018-09-12T12:27:52.537Z,40.72
2018-09-12T12:28:52.698Z,40.13
2018-09-12T12:29:52.862Z,40.64
2018-09-12T12:30:53.021Z,41.32
2018-09-12T12:31:53.181Z,41.32
2018-09-12T12:32:53.343Z,41.32
2018-09-12T12:33:53.504Z,41.03
2018-09-12T12:34:53.668Z,39.86
2018-09-12T12:35:53.831Z,39.86
2018-09-12T12:36:53.994Z,39.47
2018-09-12T12:37:54.156Z,39.47
2018-09-12T12:38:54.317Z,40.08
2018-09-12T12:39:54.483Z,39.00
2018-09-12T12:40:54.642Z,39.20
2018-09-12T12:41:54.800Z,38.32
2018-09-12T12:42:54.964Z,38.71
2018-09-12T12:43:55.124Z,38.42
2018-09-12T12:44:55.289Z,38.79
2018-09-12T12:45:55.448Z,39.47
2018-09-12T12:46:55.610Z,39.10
2018-09-12T12:47:55.771Z,38.71
2018-09-12T12:48:55.932Z,39.00
2018-09-12T12:49:56.095Z,40.06
2018-09-12T12:50:56.259Z,39.49
2018-09-12T12:51:56.424Z,39.88
2018-09-12T12:52:56.584Z,39.61
2018-09-12T12:53:56.749Z,38.71
2018-09-12T12:54:56.908Z,39.59